Time;durP1;ratioP1;P1;durP2;ratioP2;P2;SDS_P1;SDS_P2;PMS_P1;PMS_P2;Temp;Humidity;BMP_temperature;BMP_pressure;BME280_temperature;BME280_humidity;BME280_pressure;Samples;Min_cycle;Max_cycle;Signal;HPM_P1;HPM_P2
2022/01/07 00:00:37;;;;;;;17.23;4.57;;;;;;;2.71;nan;101432.50;10415628;28;20073;-80
2022/01/07 00:05:45;;;;;;;11.77;5.22;;;;;;;2.64;nan;101415.06;10345348;28;20133;-81
2022/01/07 00:10:47;;;;;;;13.68;4.57;;;;;;;2.69;nan;101416.22;10421167;28;20053;-80
2022/01/07 00:15:49;;;;;;;18.45;6.05;;;;;;;2.63;nan;101398.03;10397342;28;20050;-80
2022/01/07 00:20:52;;;;;;;16.58;6.03;;;;;;;2.66;nan;101395.66;10413239;28;20053;-79
2022/01/07 00:25:54;;;;;;;18.52;5.88;;;;;;;2.75;nan;101391.19;10380797;28;20060;-80
2022/01/07 00:30:55;;;;;;;17.20;5.75;;;;;;;2.72;nan;101390.09;10397340;28;20038;-80
2022/01/07 00:35:59;;;;;;;18.85;5.70;;;;;;;2.77;nan;101384.53;10401551;28;20473;-82
2022/01/07 00:41:00;;;;;;;20.60;5.10;;;;;;;2.78;nan;101378.69;10405485;28;20512;-82
2022/01/07 00:46:02;;;;;;;15.10;5.45;;;;;;;2.71;nan;101361.25;10406166;28;20049;-83
2022/01/07 00:51:04;;;;;;;12.73;4.55;;;;;;;2.84;nan;101355.25;10404724;28;20455;-82
2022/01/07 00:56:06;;;;;;;13.07;5.07;;;;;;;2.89;nan;101347.94;10405574;28;20041;-80
2022/01/07 01:01:08;;;;;;;16.02;5.88;;;;;;;2.84;nan;101346.00;10432047;28;20044;-81
2022/01/07 01:06:10;;;;;;;15.82;6.03;;;;;;;2.76;nan;101336.97;10411556;28;20125;-81
2022/01/07 01:11:11;;;;;;;20.67;6.90;;;;;;;2.81;nan;101332.19;10387853;28;20160;-81
2022/01/07 01:16:14;;;;;;;17.75;7.85;;;;;;;2.75;nan;101329.25;10420198;28;20045;-81
2022/01/07 01:21:16;;;;;;;17.38;7.18;;;;;;;2.76;nan;101316.63;10436999;28;20049;-81
2022/01/07 01:26:19;;;;;;;22.00;7.90;;;;;;;2.62;nan;101315.72;10437054;28;20163;-81
2022/01/07 01:31:21;;;;;;;22.50;7.72;;;;;;;2.54;nan;101315.25;10403906;28;20050;-82
2022/01/07 01:36:23;;;;;;;19.58;8.50;;;;;;;2.38;nan;101304.84;10421502;28;20092;-82
2022/01/07 01:41:26;;;;;;;17.17;9.02;;;;;;;2.40;nan;101316.00;10403106;28;20489;-81
2022/01/07 01:46:28;;;;;;;24.38;9.45;;;;;;;2.32;nan;101296.81;10419534;28;20049;-85
2022/01/07 01:51:30;;;;;;;19.58;9.88;;;;;;;2.21;nan;101289.34;10419831;28;20132;-84
2022/01/07 01:56:33;;;;;;;26.58;12.02;;;;;;;2.10;nan;101282.69;10403872;28;20124;-86
2022/01/07 02:01:35;;;;;;;20.85;9.18;;;;;;;2.12;nan;101286.22;10400223;28;20124;-85
2022/01/07 02:06:43;;;;;;;23.30;9.18;;;;;;;2.09;nan;101273.28;10382695;28;20065;-85
2022/01/07 02:11:45;;;;;;;21.05;9.27;;;;;;;2.06;nan;101265.47;10382248;28;20042;-87
2022/01/07 02:16:46;;;;;;;21.85;9.70;;;;;;;1.97;nan;101247.09;10382566;28;20053;-85
2022/01/07 02:21:48;;;;;;;17.75;8.48;;;;;;;2.00;nan;101243.09;10381636;28;20500;-86
2022/01/07 02:26:50;;;;;;;21.38;10.13;;;;;;;1.83;nan;101229.22;10414773;28;20420;-86
2022/01/07 02:31:52;;;;;;;26.90;11.85;;;;;;;1.77;nan;101208.50;10410796;28;20080;-85
2022/01/07 02:36:55;;;;;;;23.58;10.50;;;;;;;1.81;nan;101185.09;10398162;28;20134;-85
2022/01/07 02:41:57;;;;;;;25.75;11.05;;;;;;;1.88;nan;101188.88;10382356;28;20041;-85
2022/01/07 02:46:59;;;;;;;28.25;13.32;;;;;;;1.79;nan;101199.34;10397912;28;20155;-87
2022/01/07 02:52:01;;;;;;;18.02;8.90;;;;;;;1.90;nan;101200.91;10397249;28;20057;-87
2022/01/07 02:57:03;;;;;;;18.88;9.30;;;;;;;1.97;nan;101201.34;10404867;28;20083;-84
2022/01/07 03:02:08;;;;;;;27.90;11.48;;;;;;;1.87;nan;101194.75;10396832;28;20088;-86
2022/01/07 03:07:10;;;;;;;24.90;9.88;;;;;;;1.93;nan;101190.09;10404958;28;20087;-85
2022/01/07 03:12:14;;;;;;;30.67;12.18;;;;;;;1.95;nan;101182.56;10392960;28;20562;-84
2022/01/07 03:17:16;;;;;;;35.22;12.07;;;;;;;1.86;nan;101168.47;10429098;28;20459;-86
2022/01/07 03:22:18;;;;;;;22.83;8.88;;;;;;;2.02;nan;101172.00;10412126;28;20539;-85
2022/01/07 03:27:19;;;;;;;27.15;10.80;;;;;;;1.95;nan;101164.78;10380309;28;20056;-85
2022/01/07 03:32:21;;;;;;;21.88;11.15;;;;;;;1.97;nan;101158.13;10379270;28;20053;-87
2022/01/07 03:37:23;;;;;;;23.58;12.60;;;;;;;1.96;nan;101148.75;10395836;28;20183;-86
2022/01/07 03:42:25;;;;;;;18.55;7.70;;;;;;;2.04;nan;101145.03;10394817;28;20164;-86
2022/01/07 03:47:27;;;;;;;20.65;8.98;;;;;;;2.00;nan;101125.28;10428093;28;20049;-85
2022/01/07 03:52:30;;;;;;;24.75;8.77;;;;;;;2.01;nan;101125.38;10394630;28;20054;-86
2022/01/07 03:57:32;;;;;;;20.65;9.63;;;;;;;1.99;nan;101120.97;10395544;28;20057;-88
2022/01/07 04:02:33;;;;;;;22.30;8.52;;;;;;;2.03;nan;101115.31;10394068;28;20075;-86
2022/01/07 04:07:36;;;;;;;24.30;10.25;;;;;;;2.04;nan;101105.25;10410626;28;20452;-86
2022/01/07 04:12:37;;;;;;;23.35;9.88;;;;;;;2.04;nan;101096.75;10427680;28;20046;-87
2022/01/07 04:17:45;;;;;;;25.30;10.65;;;;;;;2.02;nan;101094.09;10394620;28;20196;-87
2022/01/07 04:22:50;;;;;;;18.20;9.18;;;;;;;2.05;nan;101098.50;10376256;28;20045;-85
2022/01/07 04:27:54;;;;;;;21.70;9.07;;;;;;;2.04;nan;101091.69;10391533;28;20045;-86
2022/01/07 04:32:56;;;;;;;18.50;9.95;;;;;;;2.02;nan;101083.06;10408590;28;20045;-86
2022/01/07 04:37:58;;;;;;;44.05;8.65;;;;;;;2.05;nan;101086.69;10392383;28;20041;-87
2022/01/07 04:43:02;;;;;;;19.02;8.20;;;;;;;2.05;nan;101079.06;10392009;28;20457;-87
2022/01/07 04:48:05;;;;;;;17.48;6.07;;;;;;;2.06;nan;101079.91;10392142;28;20056;-86
2022/01/07 04:53:07;;;;;;;17.10;7.97;;;;;;;1.85;nan;101082.88;10393004;28;20049;-87
2022/01/07 04:58:12;;;;;;;21.60;8.82;;;;;;;1.81;nan;101078.38;10376093;28;20055;-86
2022/01/07 05:03:16;;;;;;;18.55;7.85;;;;;;;1.87;nan;101081.31;10407877;28;20793;-89
2022/01/07 05:08:21;;;;;;;16.13;9.30;;;;;;;1.73;nan;101080.41;10408108;28;20136;-88
2022/01/07 05:13:23;;;;;;;18.98;8.07;;;;;;;1.66;nan;101072.31;10392226;28;20037;-87
2022/01/07 05:18:25;;;;;;;17.58;8.63;;;;;;;1.48;nan;101087.22;10355489;28;1068240;-88
2022/01/07 05:23:27;;;;;;;19.80;6.93;;;;;;;1.49;nan;101074.63;10426270;28;20045;-87
2022/01/07 05:28:29;;;;;;;19.80;10.88;;;;;;;1.46;nan;101064.25;10393447;28;20099;-86
2022/01/07 05:33:31;;;;;;;17.42;7.68;;;;;;;1.56;nan;101053.06;10393425;28;20049;-87
2022/01/07 05:38:32;;;;;;;20.38;9.43;;;;;;;1.65;nan;101037.53;10395789;28;20145;-87
2022/01/07 05:43:34;;;;;;;20.83;9.20;;;;;;;1.76;nan;101036.53;10417243;28;20042;-86
2022/01/07 05:48:36;;;;;;;18.42;8.65;;;;;;;1.84;nan;101030.28;10399884;28;20123;-87
2022/01/07 05:53:39;;;;;;;20.80;10.48;;;;;;;1.90;nan;101033.22;10384039;28;20128;-86
2022/01/07 05:58:43;;;;;;;21.67;8.73;;;;;;;2.07;nan;101020.69;10398986;28;20053;-86
2022/01/07 06:03:45;;;;;;;23.20;8.82;;;;;;;2.10;nan;101025.97;10400687;28;20041;-87
2022/01/07 06:08:47;;;;;;;22.13;8.60;;;;;;;2.22;nan;101015.69;10399393;28;20064;-86
2022/01/07 06:13:49;;;;;;;21.65;10.25;;;;;;;2.20;nan;101022.34;10383260;28;20049;-85
2022/01/07 06:18:54;;;;;;;17.73;10.80;;;;;;;2.27;nan;101023.59;10374095;28;20048;-87
2022/01/07 06:23:56;;;;;;;16.38;10.52;;;;;;;2.28;nan;101010.97;10410267;28;20523;-85
2022/01/07 06:28:58;;;;;;;19.10;10.73;;;;;;;2.37;nan;101019.16;10398136;28;20049;-86
2022/01/07 06:34:02;;;;;;;16.60;10.88;;;;;;;2.42;nan;101014.34;10399677;28;20038;-84
2022/01/07 06:39:04;;;;;;;18.70;11.43;;;;;;;2.52;nan;101020.88;10418124;28;20048;-83
2022/01/07 06:44:06;;;;;;;17.75;11.77;;;;;;;2.52;nan;101011.56;10401675;28;20048;-83
2022/01/07 06:49:08;;;;;;;17.75;10.82;;;;;;;2.60;nan;101012.06;10400238;28;20053;-84
2022/01/07 06:54:11;;;;;;;22.23;13.20;;;;;;;2.63;nan;101024.06;10435096;28;20048;-84
2022/01/07 06:59:14;;;;;;;21.27;11.50;;;;;;;2.64;nan;101025.84;10417570;28;20053;-83
2022/01/07 07:04:17;;;;;;;21.90;13.02;;;;;;;2.76;nan;101026.56;10400783;28;20444;-84
2022/01/07 07:09:19;;;;;;;21.83;10.80;;;;;;;2.81;nan;101030.25;10384559;28;20049;-83
2022/01/07 07:14:21;;;;;;;16.38;9.43;;;;;;;2.89;nan;101047.63;10401838;28;20144;-83
2022/01/07 07:19:23;;;;;;;18.13;11.95;;;;;;;2.89;nan;101029.81;10400999;28;20140;-83
2022/01/07 07:24:25;;;;;;;20.35;10.00;;;;;;;3.00;nan;101026.25;10417415;28;20057;-83
2022/01/07 07:29:27;;;;;;;17.88;11.98;;;;;;;3.02;nan;101029.75;10400351;28;20137;-85
2022/01/07 07:34:44;;;;;;;18.30;10.88;;;;;;;3.09;nan;101026.75;10414680;28;20053;-85
2022/01/07 07:39:48;;;;;;;21.30;13.03;;;;;;;3.09;nan;101014.03;10399851;28;20436;-84
2022/01/07 07:44:51;;;;;;;24.00;11.68;;;;;;;3.20;nan;101023.97;10399194;28;20033;-85
2022/01/07 07:49:53;;;;;;;22.02;12.13;;;;;;;3.17;nan;101017.03;10444510;28;20491;-85
2022/01/07 07:54:55;;;;;;;20.40;12.55;;;;;;;3.26;nan;101014.13;10421517;28;20033;-85
2022/01/07 07:59:57;;;;;;;21.00;11.55;;;;;;;3.36;nan;101013.88;10396688;28;20148;-85
2022/01/07 08:04:59;;;;;;;22.77;11.30;;;;;;;3.33;nan;101023.88;10417334;28;20041;-84
2022/01/07 08:10:04;;;;;;;22.50;12.15;;;;;;;3.43;nan;101017.63;10431435;28;20136;-84
2022/01/07 08:20:33;;;;;;;27.77;14.93;;;;;;;3.51;nan;101016.41;10419834;28;20558;-85
2022/01/07 08:25:38;;;;;;;22.80;13.50;;;;;;;3.51;nan;101000.25;10399965;28;20557;-83
2022/01/07 08:36:00;;;;;;;21.67;14.05;;;;;;;3.57;nan;100996.38;10420265;28;20037;-84
2022/01/07 08:41:02;;;;;;;25.63;13.80;;;;;;;3.63;nan;100994.19;10433160;28;20081;-84
2022/01/07 08:46:07;;;;;;;24.08;15.82;;;;;;;3.65;nan;100994.25;10408039;28;20087;-83
2022/01/07 08:51:09;;;;;;;24.40;15.18;;;;;;;3.64;nan;100992.50;10377602;28;20144;-83
2022/01/07 08:56:11;;;;;;;17.70;11.25;;;;;;;3.72;nan;101010.78;10417121;28;20045;-83
2022/01/07 09:01:19;;;;;;;21.02;12.18;;;;;;;3.77;nan;101014.44;10415974;28;20049;-84
2022/01/07 09:06:21;;;;;;;23.13;12.57;;;;;;;3.75;nan;101010.91;10400303;28;20038;-82
2022/01/07 09:11:23;;;;;;;25.70;15.50;;;;;;;3.75;nan;101016.91;10416835;28;20056;-84
2022/01/07 09:16:27;;;;;;;22.63;12.98;;;;;;;3.88;nan;101008.25;10429345;28;20033;-83
2022/01/07 09:21:29;;;;;;;20.27;12.40;;;;;;;3.94;nan;100998.41;10402611;28;20088;-84
2022/01/07 09:26:31;;;;;;;21.58;11.15;;;;;;;4.08;nan;101001.69;10423316;28;20052;-83
2022/01/07 09:31:33;;;;;;;28.65;14.40;;;;;;;3.99;nan;101003.72;10406165;28;20119;-83
2022/01/07 09:36:35;;;;;;;20.27;13.02;;;;;;;4.02;nan;101003.91;10391535;28;20404;-83
2022/01/07 09:41:37;;;;;;;25.05;14.65;;;;;;;4.11;nan;100991.66;10442200;28;20057;-83
2022/01/07 09:47:30;;;;;;;23.85;11.75;;;;;;;4.35;nan;100993.78;10417624;28;20049;-83
2022/01/07 09:52:33;;;;;;;21.48;12.43;;;;;;;4.39;nan;100993.13;10424089;28;20412;-83
2022/01/07 09:57:53;;;;;;;25.20;14.05;;;;;;;4.19;nan;100988.66;10406005;28;20048;-83
2022/01/07 10:03:00;;;;;;;16.83;11.07;;;;;;;4.20;nan;100990.41;10423641;28;20041;-83
2022/01/07 10:08:22;;;;;;;15.82;10.40;;;;;;;4.22;nan;100999.88;10407139;28;20057;-84
2022/01/07 10:13:24;;;;;;;21.50;12.98;;;;;;;4.24;nan;100997.41;10390955;28;20046;-83
2022/01/07 10:18:36;;;;;;;21.95;12.93;;;;;;;4.47;nan;100985.00;10389716;28;20493;-84
2022/01/07 10:23:38;;;;;;;18.50;10.20;;;;;;;4.49;nan;100988.50;10390071;28;20492;-84
2022/01/07 10:28:41;;;;;;;21.27;10.00;;;;;;;4.61;nan;100973.81;10404967;28;20043;-82
2022/01/07 10:33:44;;;;;;;25.77;11.10;;;;;;;4.71;nan;100970.94;10450915;28;20041;-83
2022/01/07 10:38:59;;;;;;;16.73;10.65;;;;;;;4.86;nan;100964.84;10439547;28;20455;-83
2022/01/07 10:44:04;;;;;;;13.35;9.00;;;;;;;4.84;nan;100961.34;10430162;28;20488;-83
2022/01/07 10:49:05;;;;;;;21.35;10.82;;;;;;;4.92;nan;100958.34;10432057;28;20049;-82
2022/01/07 10:54:10;;;;;;;17.85;9.73;;;;;;;5.14;nan;100958.56;10421626;28;20049;-84
2022/01/07 10:59:14;;;;;;;16.23;9.18;;;;;;;5.18;nan;100942.56;10404979;28;20071;-84
2022/01/07 11:04:22;;;;;;;17.10;9.88;;;;;;;5.04;nan;100944.47;10403089;28;20135;-82
2022/01/07 11:09:24;;;;;;;16.15;10.40;;;;;;;4.92;nan;100939.63;10404602;28;20131;-82
2022/01/07 11:14:28;;;;;;;16.65;10.35;;;;;;;4.88;nan;100932.59;10388536;28;20152;-82
2022/01/07 11:19:35;;;;;;;18.13;10.40;;;;;;;4.87;nan;100936.84;10423881;28;20051;-82
2022/01/07 11:24:45;;;;;;;15.73;8.75;;;;;;;4.92;nan;100934.53;10442012;28;20059;-83
2022/01/07 11:30:04;;;;;;;23.33;10.95;;;;;;;4.88;nan;100940.25;10456756;28;20064;-83
2022/01/07 11:35:21;;;;;;;19.10;9.40;;;;;;;4.92;nan;100934.53;10404640;28;20404;-84
2022/01/07 11:40:29;;;;;;;18.20;8.85;;;;;;;5.01;nan;100934.09;10399552;28;20053;-82
2022/01/07 11:45:38;;;;;;;20.20;9.10;;;;;;;5.05;nan;100934.31;10457796;28;20037;-83
2022/01/07 11:50:55;;;;;;;11.37;6.53;;;;;;;5.13;nan;100932.16;10435172;28;20060;-82
2022/01/07 11:56:01;;;;;;;15.85;7.22;;;;;;;5.24;nan;100927.56;10404174;28;20423;-82
2022/01/07 12:01:04;;;;;;;16.55;7.68;;;;;;;5.25;nan;100924.16;10402895;28;20127;-83
2022/01/07 12:06:24;;;;;;;16.20;7.35;;;;;;;5.36;nan;100928.13;10404316;28;20042;-82
2022/01/07 12:11:30;;;;;;;11.70;5.97;;;;;;;5.26;nan;100919.97;10419527;28;20156;-81
2022/01/07 12:16:34;;;;;;;20.23;7.57;;;;;;;5.27;nan;100914.91;10418223;28;20053;-83
2022/01/07 12:21:37;;;;;;;13.50;6.25;;;;;;;5.30;nan;100920.19;10402253;28;20049;-81
2022/01/07 12:26:40;;;;;;;16.45;5.90;;;;;;;5.36;nan;100917.91;10386262;28;20034;-83
2022/01/07 12:31:53;;;;;;;18.42;6.82;;;;;;;5.46;nan;100903.88;10399489;28;20532;-82
2022/01/07 12:37:00;;;;;;;12.15;5.55;;;;;;;5.53;nan;100894.84;10394921;28;20046;-82
2022/01/07 12:42:06;;;;;;;9.68;4.55;;;;;;;5.61;nan;100895.19;10422274;28;20053;-83
2022/01/07 12:47:09;;;;;;;7.00;4.30;;;;;;;5.66;nan;100888.63;10435525;28;20136;-83
2022/01/07 12:52:29;;;;;;;11.45;5.22;;;;;;;5.56;nan;100877.97;10443841;28;20053;-82
2022/01/07 12:57:52;;;;;;;12.48;4.55;;;;;;;5.67;nan;100873.34;10393837;28;20042;-82
2022/01/07 13:03:01;;;;;;;12.38;5.13;;;;;;;5.63;nan;100886.75;10411071;28;20146;-81
2022/01/07 13:08:13;;;;;;;11.40;4.30;;;;;;;5.82;nan;100879.94;10427156;28;20092;-83
2022/01/07 13:13:18;;;;;;;15.23;5.05;;;;;;;5.98;nan;100873.81;10409827;28;20488;-82
2022/01/07 13:19:22;;;;;;;8.52;4.30;;;;;;;6.00;nan;100872.25;10425001;28;20045;-82
2022/01/07 13:24:27;;;;;;;10.90;4.00;;;;;;;5.88;nan;100864.88;10412690;28;20072;-84
2022/01/07 13:29:29;;;;;;;11.75;3.72;;;;;;;5.79;nan;100859.34;10455986;28;20515;-82
2022/01/07 13:34:33;;;;;;;12.43;4.20;;;;;;;5.77;nan;100860.97;10457909;28;20141;-84
2022/01/07 13:39:44;;;;;;;8.77;3.40;;;;;;;5.81;nan;100865.41;10412326;28;20045;-83
2022/01/07 13:44:56;;;;;;;15.77;4.60;;;;;;;5.80;nan;100855.97;10409056;28;20132;-84
2022/01/07 13:50:14;;;;;;;9.75;3.83;;;;;;;5.79;nan;100851.66;10423548;28;20053;-84
2022/01/07 13:55:27;;;;;;;13.63;4.60;;;;;;;5.66;nan;100846.03;10428949;28;20045;-82
2022/01/07 14:00:41;;;;;;;15.23;4.70;;;;;;;5.76;nan;100852.41;10419042;28;20044;-82
2022/01/07 14:05:44;;;;;;;9.15;3.78;;;;;;;5.84;nan;100850.22;10464647;28;20076;-83
2022/01/07 14:10:47;;;;;;;9.57;3.65;;;;;;;5.81;nan;100855.19;10422706;28;20049;-82
2022/01/07 14:15:55;;;;;;;7.88;4.05;;;;;;;5.82;nan;100854.38;10390955;28;20535;-82
2022/01/07 14:21:04;;;;;;;7.75;3.83;;;;;;;5.75;nan;100847.25;10407559;28;20063;-82
2022/01/07 14:26:08;;;;;;;13.87;4.57;;;;;;;5.46;nan;100851.91;10438844;28;20476;-82
2022/01/07 14:31:13;;;;;;;12.88;4.60;;;;;;;5.51;nan;100851.31;10413687;28;20791;-83
2022/01/07 14:36:15;;;;;;;8.45;2.45;;;;;;;4.23;nan;100909.84;10403046;28;20534;-81
2022/01/07 14:41:20;;;;;;;3.40;1.13;;;;;;;3.35;nan;100902.63;10410596;28;20038;-87
2022/01/07 14:46:21;;;;;;;3.65;1.50;;;;;;;3.58;nan;100890.25;10396807;28;20051;-86
2022/01/07 14:51:24;;;;;;;5.70;1.20;;;;;;;3.43;nan;100901.38;10428990;28;20305;-87
2022/01/07 14:56:29;;;;;;;3.55;1.08;;;;;;;3.24;nan;100888.44;10395832;28;20148;-85
2022/01/07 15:01:30;;;;;;;4.30;1.10;;;;;;;3.16;nan;100903.25;10430911;28;20042;-86
2022/01/07 15:06:33;;;;;;;5.22;1.10;;;;;;;3.14;nan;100915.00;10425883;28;20033;-85
2022/01/07 15:11:35;;;;;;;1.63;0.70;;;;;;;2.87;nan;100939.81;10390249;28;20060;-84
2022/01/07 15:16:39;;;;;;;0.68;0.38;;;;;;;2.48;nan;100943.53;10424379;28;20485;-86
2022/01/07 15:21:41;;;;;;;4.68;0.70;;;;;;;2.16;nan;100945.00;10410559;28;20049;-84
2022/01/07 15:26:45;;;;;;;1.85;0.50;;;;;;;1.86;nan;100936.41;10413268;28;20038;-86
2022/01/07 15:31:47;;;;;;;2.97;0.50;;;;;;;2.00;nan;100932.16;10392898;28;20049;-86
2022/01/07 15:37:13;;;;;;;3.20;0.50;;;;;;;1.82;nan;100936.97;10397260;28;20103;-86
2022/01/07 15:42:18;;;;;;;3.33;0.60;;;;;;;1.68;nan;100948.81;10391087;28;20071;-87
2022/01/07 15:47:20;;;;;;;1.40;0.55;;;;;;;1.63;nan;100933.31;10376563;28;20045;-85
2022/01/07 15:52:23;;;;;;;5.60;0.95;;;;;;;1.61;nan;100918.75;10392868;28;20069;-84
2022/01/07 15:57:26;;;;;;;2.10;0.40;;;;;;;1.67;nan;100911.53;10409511;28;20382;-84
2022/01/07 16:02:27;;;;;;;4.32;0.43;;;;;;;1.58;nan;100912.72;10395653;28;20377;-85
2022/01/07 16:07:29;;;;;;;2.45;0.55;;;;;;;1.55;nan;100927.75;10425884;28;20065;-84
2022/01/07 16:12:31;;;;;;;4.60;0.73;;;;;;;1.58;nan;100932.13;10411244;28;20087;-85
2022/01/07 16:17:35;;;;;;;5.82;0.90;;;;;;;1.61;nan;100926.34;10412222;28;20084;-85
2022/01/07 16:22:37;;;;;;;1.70;0.60;;;;;;;1.69;nan;100927.72;10384741;28;20056;-85
2022/01/07 16:27:39;;;;;;;2.00;0.77;;;;;;;1.92;nan;100928.25;10426556;28;20477;-86
2022/01/07 16:32:42;;;;;;;2.88;0.80;;;;;;;1.97;nan;100926.91;10408855;28;20052;-85
2022/01/07 16:37:44;;;;;;;3.83;0.80;;;;;;;2.04;nan;100913.78;10390125;28;20034;-85
2022/01/07 16:42:46;;;;;;;5.88;1.10;;;;;;;1.96;nan;100917.50;10394212;28;20045;-85
2022/01/07 16:47:48;;;;;;;3.53;0.93;;;;;;;2.03;nan;100897.63;10394565;28;20413;-86
2022/01/07 16:52:50;;;;;;;7.88;2.42;;;;;;;1.95;nan;100877.63;10407070;28;20041;-87
2022/01/07 16:57:52;;;;;;;5.05;1.20;;;;;;;2.09;nan;100875.91;10420383;28;20053;-87
2022/01/07 17:02:54;;;;;;;3.88;1.40;;;;;;;2.07;nan;100878.38;10405193;28;20611;-86
2022/01/07 17:07:56;;;;;;;4.88;2.08;;;;;;;2.01;nan;100868.69;10388331;28;20061;-87
2022/01/07 17:12:58;;;;;;;7.47;2.50;;;;;;;2.13;nan;100870.25;10390988;28;20046;-86
2022/01/07 17:18:00;;;;;;;5.68;1.77;;;;;;;2.06;nan;100881.69;10390895;28;20080;-86
2022/01/07 17:23:02;;;;;;;3.85;2.05;;;;;;;2.11;nan;100897.22;10406868;28;20631;-86
2022/01/07 17:28:04;;;;;;;6.53;2.03;;;;;;;2.03;nan;100896.78;10408485;28;20076;-85
2022/01/07 17:33:06;;;;;;;7.10;2.85;;;;;;;1.99;nan;100894.81;10374529;28;20120;-84
2022/01/07 17:38:08;;;;;;;4.97;1.90;;;;;;;2.01;nan;100894.13;10416057;28;20087;-86
2022/01/07 17:43:10;;;;;;;9.15;2.05;;;;;;;1.92;nan;100878.34;10416096;28;20052;-85
2022/01/07 17:48:15;;;;;;;6.20;2.20;;;;;;;2.01;nan;100872.91;10419509;28;20051;-85
2022/01/07 17:53:17;;;;;;;7.25;2.42;;;;;;;2.03;nan;100891.69;10382321;28;20049;-86
2022/01/07 17:58:19;;;;;;;4.10;1.25;;;;;;;2.13;nan;100883.81;10378351;28;20041;-85
2022/01/07 18:03:22;;;;;;;4.60;1.60;;;;;;;2.08;nan;100890.28;10432061;28;20045;-85
2022/01/07 18:08:24;;;;;;;5.13;1.38;;;;;;;2.03;nan;100886.59;10432938;28;20041;-86
2022/01/07 18:13:26;;;;;;;4.60;1.70;;;;;;;1.95;nan;100892.88;10417902;28;20049;-84
2022/01/07 18:18:40;;;;;;;4.85;1.77;;;;;;;1.85;nan;100902.47;10434857;28;20058;-85
2022/01/07 18:23:42;;;;;;;5.30;2.00;;;;;;;1.85;nan;100892.31;10427100;28;20034;-85
2022/01/07 18:28:45;;;;;;;2.88;1.70;;;;;;;1.86;nan;100899.16;10459780;28;20040;-84
2022/01/07 18:33:47;;;;;;;5.72;2.40;;;;;;;1.77;nan;100890.09;10444933;28;20052;-84
2022/01/07 18:38:50;;;;;;;4.50;1.77;;;;;;;1.82;nan;100897.22;10436789;28;20068;-84
2022/01/07 18:43:52;;;;;;;4.15;2.00;;;;;;;1.95;nan;100890.34;10404100;28;20136;-84
2022/01/07 18:48:54;;;;;;;3.83;2.17;;;;;;;1.92;nan;100895.22;10420317;28;20045;-85
2022/01/07 18:53:56;;;;;;;4.85;1.83;;;;;;;1.92;nan;100892.69;10398327;28;20138;-84
2022/01/07 18:58:58;;;;;;;3.78;2.13;;;;;;;1.85;nan;100902.47;10410239;28;20045;-88
2022/01/07 19:04:00;;;;;;;4.82;2.38;;;;;;;1.80;nan;100903.88;10422187;28;20056;-85
2022/01/07 19:09:02;;;;;;;4.97;2.83;;;;;;;1.75;nan;100895.06;10428210;28;20472;-86
2022/01/07 19:14:04;;;;;;;6.88;3.08;;;;;;;1.77;nan;100906.22;10404479;28;20053;-85
2022/01/07 19:19:07;;;;;;;4.65;3.17;;;;;;;1.70;nan;100911.69;10417550;28;20480;-85
2022/01/07 19:24:08;;;;;;;6.35;3.05;;;;;;;1.66;nan;100917.38;10414365;28;20052;-85
2022/01/07 19:29:11;;;;;;;9.55;4.07;;;;;;;1.62;nan;100912.88;10427648;28;20609;-86
2022/01/07 19:34:12;;;;;;;9.32;3.25;;;;;;;1.61;nan;100911.13;10396103;28;20523;-86
2022/01/07 19:39:14;;;;;;;9.07;3.53;;;;;;;1.53;nan;100919.13;10416015;28;20037;-86
2022/01/07 19:44:16;;;;;;;8.27;4.60;;;;;;;1.41;nan;100910.75;10433809;28;20175;-87
2022/01/07 19:49:19;;;;;;;9.65;5.25;;;;;;;1.43;nan;100915.16;10417648;28;20100;-86
2022/01/07 19:54:21;;;;;;;11.57;5.97;;;;;;;1.40;nan;100907.38;10408471;28;20085;-87
2022/01/07 19:59:33;;;;;;;12.00;7.60;;;;;;;1.25;nan;100907.25;10403136;28;20044;-86
2022/01/07 20:04:36;;;;;;;10.32;5.60;;;;;;;1.29;nan;100912.53;10411771;28;20100;-85
2022/01/07 20:09:38;;;;;;;8.60;5.90;;;;;;;1.24;nan;100914.78;10408820;28;20091;-86
2022/01/07 20:14:40;;;;;;;10.95;6.68;;;;;;;1.26;nan;100914.09;10393507;28;20128;-86
2022/01/07 20:19:43;;;;;;;13.68;8.50;;;;;;;1.10;nan;100906.28;10387541;28;20050;-87
2022/01/07 20:24:44;;;;;;;16.67;8.23;;;;;;;1.18;nan;100910.19;10406018;28;20041;-87
2022/01/07 20:29:49;;;;;;;19.52;10.48;;;;;;;1.41;nan;100911.66;10377309;28;20056;-87
2022/01/07 20:34:50;;;;;;;23.70;14.82;;;;;;;1.40;nan;100916.63;10403398;28;20045;-86
2022/01/07 20:39:53;;;;;;;18.20;11.05;;;;;;;1.41;nan;100908.22;10404769;28;20053;-87
2022/01/07 20:44:55;;;;;;;19.35;12.15;;;;;;;1.38;nan;100897.88;10409544;28;20512;-85
2022/01/07 20:49:57;;;;;;;15.98;9.20;;;;;;;1.49;nan;100912.13;10379080;28;20053;-84
2022/01/07 20:55:00;;;;;;;14.57;8.45;;;;;;;1.60;nan;100905.19;10396278;28;20501;-86
2022/01/07 21:00:06;;;;;;;19.65;10.73;;;;;;;1.57;nan;100910.06;10405604;28;20420;-87
2022/01/07 21:05:11;;;;;;;16.92;7.25;;;;;;;1.67;nan;100916.59;10375474;28;20158;-86
2022/01/07 21:10:16;;;;;;;15.07;7.93;;;;;;;1.81;nan;100920.88;10433797;28;20053;-86
2022/01/07 21:15:19;;;;;;;17.38;8.85;;;;;;;1.85;nan;100925.34;10423365;28;20045;-84
2022/01/07 21:20:22;;;;;;;12.77;8.00;;;;;;;1.96;nan;100920.06;10442238;28;20612;-84
2022/01/07 21:25:24;;;;;;;14.65;6.95;;;;;;;2.08;nan;100919.94;10395082;28;20042;-82
2022/01/07 21:30:25;;;;;;;15.90;7.00;;;;;;;1.91;nan;100924.84;10426597;28;20489;-83
2022/01/07 21:35:29;;;;;;;13.32;7.90;;;;;;;2.08;nan;100938.59;10425935;28;20069;-84
2022/01/07 21:40:31;;;;;;;14.65;7.88;;;;;;;1.81;nan;100923.41;10423577;28;20152;-83
2022/01/07 21:45:33;;;;;;;15.15;9.18;;;;;;;1.81;nan;100925.97;10405530;28;20077;-83
2022/01/07 21:50:37;;;;;;;17.63;9.27;;;;;;;1.64;nan;100921.47;10414427;28;20096;-83
2022/01/07 21:55:40;;;;;;;23.45;10.20;;;;;;;1.48;nan;100928.13;10414633;28;20048;-83
2022/01/07 22:00:49;;;;;;;15.93;8.15;;;;;;;1.53;nan;100929.28;10421767;28;20072;-84
2022/01/07 22:05:53;;;;;;;16.77;8.10;;;;;;;1.45;nan;100930.50;10436524;28;20044;-83
2022/01/07 22:10:55;;;;;;;12.98;7.32;;;;;;;1.55;nan;100937.03;10384030;28;20081;-85
2022/01/07 22:15:57;;;;;;;16.65;7.95;;;;;;;1.50;nan;100926.59;10415929;28;20064;-84
2022/01/07 22:20:59;;;;;;;16.58;8.65;;;;;;;1.38;nan;100923.25;10391434;28;20090;-84
2022/01/07 22:26:01;;;;;;;17.20;8.82;;;;;;;1.25;nan;100921.63;10387166;28;20500;-83
2022/01/07 22:31:05;;;;;;;18.63;8.93;;;;;;;1.30;nan;100930.41;10365174;28;20536;-83
2022/01/07 22:36:09;;;;;;;19.08;10.80;;;;;;;1.21;nan;100925.63;10418547;28;20052;-82
2022/01/07 22:41:11;;;;;;;22.80;9.23;;;;;;;1.19;nan;100934.78;10403572;28;20049;-82
2022/01/07 22:46:13;;;;;;;23.48;10.15;;;;;;;1.22;nan;100937.53;10403422;28;20049;-82
2022/01/07 22:51:15;;;;;;;12.43;8.68;;;;;;;1.34;nan;100941.63;10403596;28;20664;-83
2022/01/07 22:56:17;;;;;;;15.57;9.60;;;;;;;1.16;nan;100956.56;10418991;28;20041;-83
2022/01/07 23:01:23;;;;;;;18.45;10.73;;;;;;;1.20;nan;100954.31;10408849;28;20430;-84
2022/01/07 23:06:28;;;;;;;15.10;9.32;;;;;;;1.24;nan;100937.63;10413972;28;20555;-84
2022/01/07 23:11:32;;;;;;;19.85;9.50;;;;;;;1.30;nan;100945.63;10434582;28;20049;-83
2022/01/07 23:16:39;;;;;;;12.07;7.82;;;;;;;1.23;nan;100948.56;10418116;28;20053;-82
2022/01/07 23:21:40;;;;;;;13.10;8.13;;;;;;;1.20;nan;100964.47;10410048;28;20057;-82
2022/01/07 23:26:42;;;;;;;14.00;8.55;;;;;;;0.70;nan;100962.91;10418358;28;20439;-82
2022/01/07 23:31:44;;;;;;;18.05;9.20;;;;;;;0.86;nan;100954.63;10399384;28;20046;-81
2022/01/07 23:36:45;;;;;;;16.42;8.07;;;;;;;0.75;nan;100950.53;10399792;28;20048;-81
2022/01/07 23:41:48;;;;;;;16.20;9.38;;;;;;;0.67;nan;100962.69;10400909;28;20053;-81
2022/01/07 23:46:49;;;;;;;15.60;9.23;;;;;;;0.39;nan;100965.03;10400241;28;20192;-81
2022/01/07 23:51:51;;;;;;;20.73;11.80;;;;;;;0.37;nan;100969.13;10399381;28;20116;-81
2022/01/07 23:56:53;;;;;;;22.13;11.63;;;;;;;0.42;nan;100957.63;10399215;28;20053;-81
